Time,TemperatureF,DewpointF,PressureIn,WindDirection,WindDirectionDegrees,WindSpeedMPH,WindSpeedGustMPH,Humidity,HourlyPrecipIn,Conditions,Clouds,dailyrainin,SoftwareType,DateUTC
2013-02-04 00:07:00,34.5,29.0,30.11,WNW,282,0.0,0.0,80,0.00,,,0.00,weatherlink.com 1.10,2013-02-04 06:07:00,
2013-02-04 00:22:00,34.6,29.0,30.11,West,280,0.0,0.0,81,0.00,,,0.00,weatherlink.com 1.10,2013-02-04 06:22:00,
2013-02-04 00:37:00,34.5,29.0,30.11,West,280,0.0,0.0,81,0.00,,,0.00,weatherlink.com 1.10,2013-02-04 06:37:00,
2013-02-04 00:52:00,34.2,30.0,30.11,West,280,0.0,0.0,83,0.00,,,0.00,weatherlink.com 1.10,2013-02-04 06:52:00,
2013-02-04 01:07:00,33.9,29.0,30.10,NW,309,0.0,0.0,83,0.00,,,0.00,weatherlink.com 1.10,2013-02-04 07:07:00,
2013-02-04 01:22:00,34.2,29.0,30.09,NNE,17,0.0,0.0,80,0.00,,,0.00,weatherlink.com 1.10,2013-02-04 07:22:00,
2013-02-04 01:37:00,34.7,29.0,30.09,NNE,17,0.0,0.0,81,0.00,,,0.00,weatherlink.com 1.10,2013-02-04 07:37:00,
2013-02-04 01:52:00,34.3,30.0,30.09,NNE,17,0.0,0.0,83,0.00,,,0.00,weatherlink.com 1.10,2013-02-04 07:52:00,
2013-02-04 02:08:00,34.5,30.0,30.09,NNE,17,0.0,0.0,83,0.00,,,0.00,weatherlink.com 1.10,2013-02-04 08:08:00,
2013-02-04 02:22:00,34.5,30.0,30.09,NNE,17,0.0,0.0,83,0.00,,,0.00,weatherlink.com 1.10,2013-02-04 08:22:00,
2013-02-04 02:38:00,34.5,30.0,30.09,NNE,18,0.0,0.0,83,0.00,,,0.00,weatherlink.com 1.10,2013-02-04 08:38:00,
2013-02-04 02:52:00,34.2,30.0,30.09,NNE,18,0.0,0.0,83,0.00,,,0.00,weatherlink.com 1.10,2013-02-04 08:52:00,
2013-02-04 03:07:00,33.8,30.0,30.09,NNE,18,0.0,0.0,84,0.00,,,0.00,weatherlink.com 1.10,2013-02-04 09:07:00,
2013-02-04 03:22:00,34.1,30.0,30.08,SE,124,0.0,1.0,83,0.00,,,0.00,weatherlink.com 1.10,2013-02-04 09:22:00,
2013-02-04 03:39:00,35.3,28.0,30.07,SSW,212,0.0,1.0,76,0.00,,,0.00,weatherlink.com 1.10,2013-02-04 09:39:00,
2013-02-04 03:52:00,36.1,29.0,30.07,SW,219,0.0,1.0,74,0.00,,,0.00,weatherlink.com 1.10,2013-02-04 09:52:00,
2013-02-04 04:07:00,36.3,29.0,30.06,SSE,168,1.0,3.0,74,0.00,,,0.00,weatherlink.com 1.10,2013-02-04 10:07:00,
2013-02-04 04:22:00,36.8,29.0,30.06,SSE,153,0.0,2.0,72,0.00,,,0.00,weatherlink.com 1.10,2013-02-04 10:22:00,
2013-02-04 04:38:00,37.1,28.0,30.06,ESE,105,0.0,2.0,71,0.00,,,0.00,weatherlink.com 1.10,2013-02-04 10:38:00,
2013-02-04 04:53:00,37.2,29.0,30.06,ESE,113,0.0,2.0,71,0.00,,,0.00,weatherlink.com 1.10,2013-02-04 10:53:00,
2013-02-04 05:08:00,37.3,29.0,30.05,ESE,102,0.0,3.0,71,0.00,,,0.00,weatherlink.com 1.10,2013-02-04 11:08:00,
2013-02-04 05:23:00,37.6,29.0,30.04,SSW,204,0.0,3.0,70,0.00,,,0.00,weatherlink.com 1.10,2013-02-04 11:23:00,
2013-02-04 05:38:00,38.2,29.0,30.03,SW,222,4.0,6.0,70,0.00,,,0.00,weatherlink.com 1.10,2013-02-04 11:38:00,
2013-02-04 05:53:00,38.7,29.0,30.03,SSW,200,1.0,5.0,69,0.00,,,0.00,weatherlink.com 1.10,2013-02-04 11:53:00,
2013-02-04 06:08:00,39.1,29.0,30.02,SSW,207,0.0,4.0,68,0.00,,,0.00,weatherlink.com 1.10,2013-02-04 12:08:00,
2013-02-04 06:23:00,39.3,29.0,30.02,SSW,197,0.0,4.0,68,0.00,,,0.00,weatherlink.com 1.10,2013-02-04 12:23:00,
2013-02-04 06:38:00,39.4,30.0,30.02,WSW,251,1.0,3.0,68,0.00,,,0.00,weatherlink.com 1.10,2013-02-04 12:38:00,
2013-02-04 06:53:00,39.4,30.0,30.02,WSW,245,2.0,4.0,68,0.00,,,0.00,weatherlink.com 1.10,2013-02-04 12:53:00,
2013-02-04 07:08:00,39.7,29.0,30.01,WSW,241,2.0,6.0,67,0.00,,,0.00,weatherlink.com 1.10,2013-02-04 13:08:00,
2013-02-04 07:23:00,40.3,30.0,30.01,SE,134,5.0,7.0,66,0.00,,,0.00,weatherlink.com 1.10,2013-02-04 13:23:00,
2013-02-04 07:38:00,40.7,30.0,30.02,SE,131,3.0,9.0,65,0.00,,,0.00,weatherlink.com 1.10,2013-02-04 13:38:00,
2013-02-04 07:53:00,41.3,30.0,30.02,SSW,211,5.0,7.0,64,0.00,,,0.00,weatherlink.com 1.10,2013-02-04 13:53:00,
2013-02-04 08:08:00,42.0,30.0,30.03,SW,216,2.0,6.0,63,0.00,,,0.00,weatherlink.com 1.10,2013-02-04 14:08:00,
2013-02-04 08:23:00,42.7,30.0,30.03,SW,221,3.0,6.0,62,0.00,,,0.00,weatherlink.com 1.10,2013-02-04 14:23:00,
2013-02-04 08:38:00,43.3,30.0,30.03,SSW,204,3.0,7.0,61,0.00,,,0.00,weatherlink.com 1.10,2013-02-04 14:38:00,
2013-02-04 08:53:00,43.8,31.0,30.02,ESE,109,4.0,6.0,60,0.00,,,0.00,weatherlink.com 1.10,2013-02-04 14:53:00,
2013-02-04 09:08:00,44.2,30.0,30.02,ESE,108,1.0,8.0,59,0.00,,,0.00,weatherlink.com 1.10,2013-02-04 15:08:00,
2013-02-04 09:23:00,44.6,30.0,30.02,SW,215,4.0,9.0,58,0.00,,,0.00,weatherlink.com 1.10,2013-02-04 15:23:00,
2013-02-04 09:39:00,45.1,30.0,30.02,SW,218,4.0,9.0,57,0.00,,,0.00,weatherlink.com 1.10,2013-02-04 15:39:00,
2013-02-04 09:54:00,45.8,31.0,30.03,South,188,4.0,7.0,56,0.00,,,0.00,weatherlink.com 1.10,2013-02-04 15:54:00,
2013-02-04 10:08:00,46.8,31.0,30.03,SSW,204,3.0,7.0,55,0.00,,,0.00,weatherlink.com 1.10,2013-02-04 16:08:00,
2013-02-04 10:24:00,47.8,31.0,30.03,SSW,201,4.0,9.0,53,0.00,,,0.00,weatherlink.com 1.10,2013-02-04 16:24:00,
2013-02-04 10:39:00,48.5,31.0,30.03,West,259,1.0,6.0,52,0.00,,,0.00,weatherlink.com 1.10,2013-02-04 16:39:00,
2013-02-04 10:54:00,49.6,31.0,30.02,NE,41,2.0,5.0,50,0.00,,,0.00,weatherlink.com 1.10,2013-02-04 16:54:00,
2013-02-04 11:09:00,51.8,31.0,30.02,WSW,246,4.0,6.0,46,0.00,,,0.00,weatherlink.com 1.10,2013-02-04 17:09:00,
2013-02-04 11:24:00,53.1,31.0,30.02,SSW,207,2.0,7.0,43,0.00,,,0.00,weatherlink.com 1.10,2013-02-04 17:24:00,
2013-02-04 11:39:00,53.8,30.0,30.01,SSW,192,4.0,8.0,41,0.00,,,0.00,weatherlink.com 1.10,2013-02-04 17:39:00,
2013-02-04 11:54:00,54.8,31.0,30.00,SW,215,1.0,9.0,41,0.00,,,0.00,weatherlink.com 1.10,2013-02-04 17:54:00,
2013-02-04 12:09:00,56.6,32.0,29.99,SW,233,4.0,9.0,39,0.00,,,0.00,weatherlink.com 1.10,2013-02-04 18:09:00,
2013-02-04 12:24:00,57.0,32.0,29.98,WSW,252,5.0,6.0,39,0.00,,,0.00,weatherlink.com 1.10,2013-02-04 18:24:00,
2013-02-04 12:39:00,57.1,33.0,29.97,SW,235,4.0,10.0,40,0.00,,,0.00,weatherlink.com 1.10,2013-02-04 18:39:00,
2013-02-04 12:54:00,58.0,33.0,29.96,SSE,153,2.0,11.0,39,0.00,,,0.00,weatherlink.com 1.10,2013-02-04 18:54:00,
2013-02-04 13:09:00,57.5,33.0,29.95,SE,135,2.0,9.0,40,0.00,,,0.00,weatherlink.com 1.10,2013-02-04 19:09:00,
2013-02-04 13:24:00,58.3,33.0,29.95,SW,221,2.0,12.0,39,0.00,,,0.00,weatherlink.com 1.10,2013-02-04 19:24:00,
2013-02-04 13:39:00,57.8,33.0,29.94,South,180,1.0,9.0,39,0.00,,,0.00,weatherlink.com 1.10,2013-02-04 19:39:00,
2013-02-04 13:54:00,57.4,33.0,29.94,ESE,106,3.0,10.0,40,0.00,,,0.00,weatherlink.com 1.10,2013-02-04 19:54:00,
2013-02-04 14:10:00,57.3,33.0,29.95,ENE,58,3.0,9.0,40,0.00,,,0.00,weatherlink.com 1.10,2013-02-04 20:10:00,
2013-02-04 14:25:00,56.8,33.0,29.95,WSW,238,3.0,9.0,40,0.00,,,0.00,weatherlink.com 1.10,2013-02-04 20:25:00,
2013-02-04 14:39:00,56.2,34.0,29.94,SSE,163,3.0,8.0,43,0.00,,,0.00,weatherlink.com 1.10,2013-02-04 20:39:00,
2013-02-04 14:54:00,55.2,34.0,29.94,SW,228,2.0,6.0,45,0.00,,,0.00,weatherlink.com 1.10,2013-02-04 20:54:00,
2013-02-04 15:09:00,54.5,34.0,29.94,SW,214,4.0,6.0,46,0.00,,,0.00,weatherlink.com 1.10,2013-02-04 21:09:00,
2013-02-04 15:25:00,53.9,35.0,29.94,SSW,197,1.0,5.0,50,0.00,,,0.00,weatherlink.com 1.10,2013-02-04 21:25:00,
2013-02-04 15:39:00,53.3,36.0,29.95,SE,128,0.0,5.0,52,0.00,,,0.00,weatherlink.com 1.10,2013-02-04 21:39:00,
2013-02-04 15:54:00,53.4,35.0,29.94,SE,136,2.0,5.0,51,0.00,,,0.00,weatherlink.com 1.10,2013-02-04 21:54:00,
2013-02-04 16:09:00,53.1,36.0,29.93,SSW,204,2.0,7.0,53,0.00,,,0.00,weatherlink.com 1.10,2013-02-04 22:09:00,
2013-02-04 16:24:00,52.1,38.0,29.93,SSW,198,3.0,6.0,58,0.00,,,0.00,weatherlink.com 1.10,2013-02-04 22:24:00,
2013-02-04 16:39:00,51.5,38.0,29.93,WSW,254,1.0,4.0,61,0.00,,,0.00,weatherlink.com 1.10,2013-02-04 22:39:00,
2013-02-04 16:55:00,50.6,40.0,29.92,SSE,152,2.0,4.0,66,0.00,,,0.00,weatherlink.com 1.10,2013-02-04 22:55:00,
2013-02-04 17:09:00,50.4,39.0,29.92,SW,225,4.0,7.0,66,0.00,,,0.00,weatherlink.com 1.10,2013-02-04 23:09:00,
2013-02-04 17:24:00,50.1,40.0,29.92,SE,131,4.0,7.0,69,0.00,,,0.00,weatherlink.com 1.10,2013-02-04 23:24:00,
2013-02-04 17:40:00,49.7,40.0,29.91,SW,226,3.0,6.0,70,0.00,,,0.00,weatherlink.com 1.10,2013-02-04 23:40:00,
2013-02-04 17:55:00,49.7,41.0,29.92,SSW,207,3.0,7.0,71,0.00,,,0.00,weatherlink.com 1.10,2013-02-04 23:55:00,
2013-02-04 18:10:00,49.6,41.0,29.92,SSW,205,1.0,9.0,73,0.00,,,0.00,weatherlink.com 1.10,2013-02-05 00:10:00,
2013-02-04 18:25:00,49.4,41.0,29.92,West,259,0.0,7.0,73,0.00,,,0.00,weatherlink.com 1.10,2013-02-05 00:25:00,
2013-02-04 18:40:00,49.2,42.0,29.92,SSW,193,3.0,5.0,76,0.00,,,0.00,weatherlink.com 1.10,2013-02-05 00:40:00,
2013-02-04 18:55:00,49.0,42.0,29.92,WSW,239,2.0,7.0,76,0.00,,,0.00,weatherlink.com 1.10,2013-02-05 00:55:00,
2013-02-04 19:10:00,48.8,42.0,29.94,NW,304,0.0,3.0,78,0.01,,,0.01,weatherlink.com 1.10,2013-02-05 01:10:00,
2013-02-04 19:25:00,48.1,43.0,29.94,West,274,0.0,0.0,83,0.02,,,0.02,weatherlink.com 1.10,2013-02-05 01:25:00,
2013-02-04 19:40:00,47.3,43.0,29.94,West,274,0.0,0.0,86,0.03,,,0.03,weatherlink.com 1.10,2013-02-05 01:40:00,
2013-02-04 19:55:00,46.8,44.0,29.94,West,271,0.0,1.0,89,0.03,,,0.03,weatherlink.com 1.10,2013-02-05 01:55:00,
2013-02-04 20:10:00,46.4,44.0,29.94,West,262,0.0,0.0,91,0.02,,,0.03,weatherlink.com 1.10,2013-02-05 02:10:00,
2013-02-04 20:25:00,46.2,44.0,29.95,West,262,0.0,0.0,92,0.02,,,0.04,weatherlink.com 1.10,2013-02-05 02:25:00,
2013-02-04 20:40:00,46.2,44.0,29.95,West,262,0.0,0.0,93,0.01,,,0.04,weatherlink.com 1.10,2013-02-05 02:40:00,
2013-02-04 20:55:00,46.1,44.0,29.95,SW,228,0.0,0.0,93,0.01,,,0.04,weatherlink.com 1.10,2013-02-05 02:55:00,
2013-02-04 21:10:00,46.3,44.0,29.94,SSW,213,0.0,2.0,93,0.01,,,0.04,weatherlink.com 1.10,2013-02-05 03:10:00,
2013-02-04 21:25:00,46.6,44.0,29.95,SW,215,1.0,2.0,91,0.00,,,0.04,weatherlink.com 1.10,2013-02-05 03:25:00,
2013-02-04 21:40:00,47.2,44.0,29.95,SSW,212,0.0,2.0,88,0.00,,,0.04,weatherlink.com 1.10,2013-02-05 03:40:00,
2013-02-04 21:55:00,47.5,44.0,29.95,SSW,210,0.0,1.0,87,0.00,,,0.04,weatherlink.com 1.10,2013-02-05 03:55:00,
2013-02-04 22:10:00,47.5,44.0,29.94,ESE,109,0.0,1.0,87,0.00,,,0.04,weatherlink.com 1.10,2013-02-05 04:10:00,
2013-02-04 22:25:00,47.5,44.0,29.94,South,177,0.0,2.0,87,0.00,,,0.04,weatherlink.com 1.10,2013-02-05 04:25:00,
2013-02-04 22:44:00,47.7,44.0,29.93,SW,217,1.0,3.0,87,0.00,,,0.04,weatherlink.com 1.10,2013-02-05 04:44:00,
2013-02-04 22:55:00,47.6,44.0,29.93,SW,217,0.0,2.0,88,0.00,,,0.04,weatherlink.com 1.10,2013-02-05 04:55:00,
2013-02-04 23:10:00,47.6,44.0,29.93,SW,214,0.0,4.0,88,0.00,,,0.04,weatherlink.com 1.10,2013-02-05 05:10:00,
2013-02-04 23:25:00,47.5,44.0,29.93,SSW,207,2.0,3.0,88,0.00,,,0.04,weatherlink.com 1.10,2013-02-05 05:25:00,
2013-02-04 23:40:00,47.5,44.0,29.94,WSW,243,0.0,1.0,88,0.00,,,0.04,weatherlink.com 1.10,2013-02-05 05:40:00,
2013-02-04 23:55:00,47.5,45.0,29.93,SSW,197,0.0,2.0,89,0.00,,,0.04,weatherlink.com 1.10,2013-02-05 05:55:00,